createdAt,value
2022-11-24T00:01:15.404Z,99764.06
2022-11-24T00:03:44.356Z,99755.41
2022-11-24T00:06:14.176Z,99763.47
2022-11-24T00:08:44.809Z,99760.00
2022-11-24T00:11:14.903Z,99759.16
2022-11-24T00:13:42.999Z,99765.28
2022-11-24T00:16:12.703Z,99760.81
2022-11-24T00:18:41.900Z,99766.94
2022-11-24T00:21:09.811Z,99765.88
2022-11-24T00:23:38.286Z,99772.44
2022-11-24T00:26:10.484Z,99774.00
2022-11-24T00:28:38.644Z,99771.06
2022-11-24T00:31:17.263Z,99775.28
2022-11-24T00:33:45.940Z,99767.91
2022-11-24T00:36:13.622Z,99772.09
2022-11-24T00:38:42.148Z,99780.72
2022-11-24T00:41:12.592Z,99785.72
2022-11-24T00:43:40.396Z,99780.19
2022-11-24T00:46:08.123Z,99782.69
2022-11-24T00:48:37.133Z,99784.34
2022-11-24T00:51:06.655Z,99781.72
2022-11-24T00:53:34.980Z,99785.78
2022-11-24T00:56:03.850Z,99788.41
2022-11-24T00:58:34.312Z,99796.78
2022-11-24T01:01:04.821Z,99793.88
2022-11-24T01:03:34.330Z,99794.59
2022-11-24T01:06:05.048Z,99793.34
2022-11-24T01:08:33.127Z,99797.41
2022-11-24T01:11:11.803Z,99797.97
2022-11-24T01:13:42.353Z,99795.19
2022-11-24T01:16:16.530Z,99802.00
2022-11-24T01:18:45.296Z,99797.59
2022-11-24T01:21:15.129Z,99805.38
2022-11-24T01:23:43.142Z,99798.00
2022-11-24T01:26:13.597Z,99803.16
2022-11-24T01:28:47.179Z,99809.84
2022-11-24T01:31:16.612Z,99815.84
2022-11-24T01:33:44.316Z,99816.53
2022-11-24T01:36:12.156Z,99818.06
2022-11-24T01:38:43.128Z,99815.16
2022-11-24T01:41:13.276Z,99815.84
2022-11-24T01:43:46.576Z,99826.44
2022-11-24T01:46:19.813Z,99826.31
2022-11-24T01:48:50.773Z,99824.38
2022-11-24T01:51:22.406Z,99827.00
2022-11-24T01:53:55.804Z,99827.00
2022-11-24T01:56:24.694Z,99827.00
2022-11-24T01:58:57.168Z,99835.78
2022-11-24T02:01:26.115Z,99826.88
2022-11-24T02:03:54.753Z,99831.19
2022-11-24T02:06:27.256Z,99832.84
2022-11-24T02:08:59.484Z,99829.38
2022-11-24T02:11:34.323Z,99831.19
2022-11-24T02:14:06.240Z,99830.34
2022-11-24T02:16:35.246Z,99840.22
2022-11-24T02:19:03.375Z,99843.84
2022-11-24T02:21:34.177Z,99848.41
2022-11-24T02:24:09.521Z,99851.88
2022-11-24T02:26:45.190Z,99863.44
2022-11-24T02:29:15.064Z,99857.31
2022-11-24T02:31:49.083Z,99858.28
2022-11-24T02:34:18.137Z,99865.09
2022-11-24T02:36:45.850Z,99861.63
2022-11-24T02:39:15.435Z,99858.97
2022-11-24T02:41:51.268Z,99858.88
2022-11-24T02:44:22.137Z,99859.72
2022-11-24T02:47:15.126Z,99861.50
2022-11-24T02:49:49.164Z,99868.19
2022-11-24T02:52:17.046Z,99868.91
2022-11-24T02:54:44.607Z,99873.22
2022-11-24T02:57:14.147Z,99873.78
2022-11-24T02:59:41.771Z,99877.00
2022-11-24T03:02:10.405Z,99882.16
2022-11-24T03:04:38.022Z,99886.34
2022-11-24T03:07:08.212Z,99890.38
2022-11-24T03:09:38.124Z,99891.94
2022-11-24T03:12:12.144Z,99891.66
2022-11-24T03:14:41.008Z,99890.56
2022-11-24T03:17:08.911Z,99895.31
2022-11-24T03:19:37.354Z,99895.84
2022-11-24T03:22:06.116Z,99894.78
2022-11-24T03:24:34.048Z,99899.78
2022-11-24T03:27:01.838Z,99902.16
2022-11-24T03:29:30.137Z,99902.00
2022-11-24T03:31:59.583Z,99905.09
2022-11-24T03:34:29.542Z,99905.09
2022-11-24T03:36:57.054Z,99906.22
2022-11-24T03:39:25.476Z,99908.31
2022-11-24T03:41:54.120Z,99915.28
2022-11-24T03:44:21.824Z,99916.81
2022-11-24T03:46:52.125Z,99918.47
2022-11-24T03:49:20.990Z,99918.34
2022-11-24T03:51:48.599Z,99925.19
2022-11-24T03:54:16.174Z,99918.06
2022-11-24T03:56:44.680Z,99927.41
2022-11-24T03:59:12.238Z,99924.63
2022-11-24T04:01:40.798Z,99921.16
2022-11-24T04:04:08.751Z,99927.84
2022-11-24T04:06:37.646Z,99932.16
2022-11-24T04:09:05.545Z,99931.88
2022-11-24T04:11:52.361Z,99933.56
2022-11-24T04:14:20.852Z,99934.53
2022-11-24T04:16:48.646Z,99940.78
2022-11-24T04:19:16.489Z,99937.31
2022-11-24T04:21:49.361Z,99928.69
2022-11-24T04:24:42.585Z,99934.97
2022-11-24T04:27:11.622Z,99930.59
2022-11-24T04:29:43.168Z,99940.38
2022-11-24T04:32:11.188Z,99939.41
2022-11-24T04:34:40.170Z,99940.38
2022-11-24T04:37:10.367Z,99943.00
2022-11-24T04:40:05.471Z,99944.72
2022-11-24T04:42:33.102Z,99957.81
2022-11-24T04:45:02.132Z,99956.97
2022-11-24T04:47:29.757Z,99950.00
2022-11-24T04:49:58.138Z,99951.78
2022-11-24T04:52:29.202Z,99962.38
2022-11-24T04:54:56.732Z,99966.72
2022-11-24T04:57:29.159Z,99964.19
2022-11-24T05:00:00.164Z,99972.97
2022-11-24T05:02:33.175Z,99969.47
2022-11-24T05:05:03.607Z,99975.59
2022-11-24T05:07:35.178Z,99973.81
2022-11-24T05:10:23.870Z,99973.81
2022-11-24T05:12:55.302Z,99983.44
2022-11-24T05:15:23.123Z,99984.13
2022-11-24T05:18:16.522Z,99996.66
2022-11-24T05:20:46.240Z,99997.66
2022-11-24T05:23:41.284Z,99997.06
2022-11-24T05:26:37.149Z,100010.44
2022-11-24T05:29:06.549Z,100011.38
2022-11-24T05:31:34.179Z,100006.97
2022-11-24T05:34:03.386Z,100012.34
2022-11-24T05:36:49.838Z,100014.31
2022-11-24T05:39:18.710Z,100021.28
2022-11-24T05:41:47.730Z,100023.78
2022-11-24T05:44:17.205Z,100018.09
2022-11-24T05:46:44.887Z,100021.84
2022-11-24T05:49:12.623Z,100027.16
2022-11-24T05:51:41.199Z,100024.22
2022-11-24T05:54:09.159Z,100029.41
2022-11-24T05:56:38.063Z,100038.59
2022-11-24T05:59:09.933Z,100034.84
2022-11-24T06:01:38.232Z,100042.50
2022-11-24T06:04:05.837Z,100043.78
2022-11-24T06:06:34.165Z,100047.16
2022-11-24T06:09:01.755Z,100050.25
2022-11-24T06:11:30.168Z,100054.56
2022-11-24T06:13:59.081Z,100057.63
2022-11-24T06:16:27.109Z,100066.97
2022-11-24T06:18:55.178Z,100061.28
2022-11-24T06:21:22.902Z,100061.84
2022-11-24T06:23:50.878Z,100071.31
2022-11-24T06:26:19.594Z,100072.16
2022-11-24T06:28:47.176Z,100069.25
2022-11-24T06:31:16.264Z,100082.50
2022-11-24T06:33:44.622Z,100088.47
2022-11-24T06:36:15.128Z,100087.50
2022-11-24T06:38:42.776Z,100083.31
2022-11-24T06:41:12.848Z,100094.75
2022-11-24T06:43:40.554Z,100093.09
2022-11-24T06:46:09.711Z,100095.00
2022-11-24T06:48:39.208Z,100099.63
2022-11-24T06:51:10.159Z,100099.88
2022-11-24T06:53:39.315Z,100104.34
2022-11-24T06:56:15.649Z,100101.56
2022-11-24T06:58:48.184Z,100100.84
2022-11-24T07:01:17.302Z,100109.38
2022-11-24T07:03:48.181Z,100107.72
2022-11-24T07:06:15.935Z,100117.47
2022-11-24T07:08:43.959Z,100118.16
2022-11-24T07:11:15.523Z,100121.66
2022-11-24T07:13:43.637Z,100126.69
2022-11-24T07:16:15.265Z,100129.19
2022-11-24T07:18:46.148Z,100131.84
2022-11-24T07:21:16.592Z,100136.16
2022-11-24T07:23:45.126Z,100130.88
2022-11-24T07:26:13.348Z,100127.97
2022-11-24T07:28:40.988Z,100130.47
2022-11-24T07:31:10.161Z,100134.78
2022-11-24T07:33:40.854Z,100134.50
2022-11-24T07:36:35.686Z,100140.66
2022-11-24T07:39:03.225Z,100147.63
2022-11-24T07:41:57.136Z,100139.69
2022-11-24T07:44:24.734Z,100151.56
2022-11-24T07:46:52.367Z,100154.31
2022-11-24T07:49:20.711Z,100158.66
2022-11-24T07:51:50.158Z,100161.88
2022-11-24T07:54:17.806Z,100164.94
2022-11-24T07:56:46.132Z,100173.75
2022-11-24T07:59:13.722Z,100175.16
2022-11-24T08:01:41.879Z,100172.66
2022-11-24T08:04:09.559Z,100176.81
2022-11-24T08:06:40.885Z,100178.38
2022-11-24T08:09:11.145Z,100182.75
2022-11-24T08:11:41.158Z,100193.06
2022-11-24T08:14:14.535Z,100195.44
2022-11-24T08:16:42.109Z,100192.50
2022-11-24T08:19:12.223Z,100193.22
2022-11-24T08:21:39.800Z,100193.22
2022-11-24T08:24:09.148Z,100193.94
2022-11-24T08:26:39.133Z,100195.06
2022-11-24T08:29:08.166Z,100201.88
2022-11-24T08:31:39.447Z,100212.47
2022-11-24T08:34:08.132Z,100212.22
2022-11-24T08:36:59.770Z,100216.28
2022-11-24T08:39:27.741Z,100222.03
2022-11-24T08:41:56.969Z,100228.41
2022-11-24T08:44:24.919Z,100231.66
2022-11-24T08:46:55.113Z,100228.03
2022-11-24T08:49:22.964Z,100232.19
2022-11-24T08:51:51.248Z,100233.88
2022-11-24T08:54:19.755Z,100236.00
2022-11-24T08:56:50.182Z,100240.72
2022-11-24T08:59:19.348Z,100252.75
2022-11-24T09:01:47.181Z,100255.41
2022-11-24T09:04:16.197Z,100259.88
2022-11-24T09:06:45.626Z,100248.28
2022-11-24T09:09:14.308Z,100258.75
2022-11-24T09:11:42.774Z,100265.47
2022-11-24T09:14:11.178Z,100263.50
2022-11-24T09:16:40.256Z,100274.56
2022-11-24T09:19:08.992Z,100280.00
2022-11-24T09:21:39.226Z,100280.69
2022-11-24T09:24:09.252Z,100286.56
2022-11-24T09:26:43.100Z,100290.06
2022-11-24T09:29:14.075Z,100290.91
2022-11-24T09:31:42.951Z,100299.28
2022-11-24T09:34:14.304Z,100297.59
2022-11-24T09:36:42.873Z,100297.47
2022-11-24T09:39:11.318Z,100298.41
2022-11-24T09:41:51.252Z,100309.75
2022-11-24T09:44:42.188Z,100310.03
2022-11-24T09:47:19.805Z,100310.75
2022-11-24T09:49:55.555Z,100324.41
2022-11-24T09:52:53.165Z,100324.41
2022-11-24T09:55:31.459Z,100325.41
2022-11-24T09:58:10.425Z,100327.91
2022-11-24T10:00:38.781Z,100334.03
2022-11-24T10:03:20.002Z,100336.44
2022-11-24T10:05:51.118Z,100352.47
2022-11-24T10:08:31.265Z,100346.91
2022-11-24T10:11:03.236Z,100346.91
2022-11-24T10:13:48.148Z,100350.41
2022-11-24T10:16:23.358Z,100353.06
2022-11-24T10:19:02.529Z,100363.53
2022-11-24T10:21:47.476Z,100370.50
2022-11-24T10:24:36.885Z,100371.34
2022-11-24T10:27:18.094Z,100366.31
2022-11-24T10:29:50.753Z,100376.09
2022-11-24T10:32:20.857Z,100385.03
2022-11-24T10:35:14.782Z,100376.78
2022-11-24T10:37:48.214Z,100380.44
2022-11-24T10:40:55.385Z,100379.31
2022-11-24T10:43:14.430Z,100383.78
2022-11-24T10:45:42.704Z,100374.13
2022-11-24T10:48:18.486Z,100380.28
2022-11-24T10:50:51.132Z,100378.47
2022-11-24T10:53:28.155Z,100390.78
2022-11-24T10:56:03.697Z,100394.38
2022-11-24T10:58:37.747Z,100397.88
2022-11-24T11:01:22.365Z,100392.47
2022-11-24T11:03:53.228Z,100399.28
2022-11-24T11:06:25.471Z,100398.91
2022-11-24T11:09:17.848Z,100402.81
2022-11-24T11:11:49.165Z,100414.00
2022-11-24T11:14:30.863Z,100409.97
2022-11-24T11:16:58.860Z,100415.25
2022-11-24T11:20:00.090Z,100415.16
2022-11-24T11:22:30.150Z,100413.19
2022-11-24T11:25:20.242Z,100422.13
2022-11-24T11:27:48.460Z,100419.34
2022-11-24T11:36:11.950Z,100429.69
2022-11-24T11:38:43.183Z,100435.16
2022-11-24T11:41:21.223Z,100432.75
2022-11-24T11:43:58.241Z,100433.63
2022-11-24T11:46:32.424Z,100430.00
2022-11-24T11:49:00.401Z,100430.28
2022-11-24T11:51:40.264Z,100427.88
2022-11-24T11:54:19.289Z,100423.28
2022-11-24T11:56:50.646Z,100427.22
2022-11-24T11:59:41.215Z,100432.22
2022-11-24T12:02:41.600Z,100437.13
2022-11-24T12:05:19.817Z,100437.97
2022-11-24T12:08:09.228Z,100431.00
2022-11-24T12:10:46.936Z,100449.44
2022-11-24T12:13:37.370Z,100455.44
2022-11-24T12:16:16.565Z,100453.63
2022-11-24T12:18:58.455Z,100454.91
2022-11-24T12:21:35.156Z,100463.69
2022-11-24T12:24:13.016Z,100462.72
2022-11-24T12:26:48.234Z,100463.56
2022-11-24T12:29:49.095Z,100474.88
2022-11-24T12:35:34.202Z,100473.09
2022-11-24T12:38:16.115Z,100481.75
2022-11-24T12:41:39.849Z,100468.06
2022-11-24T12:43:57.403Z,100470.13
2022-11-24T12:46:38.469Z,100470.13
2022-11-24T12:49:20.171Z,100474.03
2022-11-24T12:51:52.196Z,100476.28
2022-11-24T12:54:21.242Z,100474.63
2022-11-24T12:56:54.671Z,100473.91
2022-11-24T12:59:35.328Z,100472.78
2022-11-24T13:02:11.756Z,100460.94
2022-11-24T13:04:48.244Z,100460.91
2022-11-24T13:07:20.545Z,100465.97
2022-11-24T13:10:06.262Z,100465.97
2022-11-24T13:12:34.685Z,100467.78
2022-11-24T13:15:43.474Z,100468.63
2022-11-24T13:18:26.548Z,100465.81
2022-11-24T13:20:54.811Z,100473.94
2022-11-24T13:23:27.653Z,100476.59
2022-11-24T13:26:16.824Z,100465.13
2022-11-24T13:29:06.152Z,100472.97
2022-11-24T13:31:39.241Z,100479.25
2022-11-24T13:34:39.369Z,100481.75
2022-11-24T13:37:31.504Z,100484.56
2022-11-24T13:40:59.908Z,100489.88
2022-11-24T13:43:31.652Z,100484.13
2022-11-24T13:45:59.239Z,100477.16
2022-11-24T13:49:02.256Z,100472.81
2022-11-24T13:51:30.134Z,100476.03
2022-11-24T13:54:00.762Z,100484.84
2022-11-24T13:56:31.354Z,100481.34
2022-11-24T13:59:02.258Z,100484.97
2022-11-24T14:01:33.216Z,100480.06
2022-11-24T14:04:36.055Z,100487.06
2022-11-24T14:07:09.092Z,100497.09
2022-11-24T14:09:43.735Z,100492.78
2022-11-24T14:12:16.197Z,100494.88
2022-11-24T14:14:45.369Z,100494.16
2022-11-24T14:17:23.482Z,100491.78
2022-11-24T14:19:55.419Z,100496.25
2022-11-24T14:22:26.560Z,100494.56
2022-11-24T14:24:56.692Z,100508.56
2022-11-24T14:27:29.910Z,100505.47
2022-11-24T14:29:59.749Z,100503.78
2022-11-24T14:32:27.896Z,100510.09
2022-11-24T14:34:58.064Z,100504.88
2022-11-24T14:37:26.031Z,100510.34
2022-11-24T14:39:53.540Z,100513.28
2022-11-24T14:42:24.256Z,100510.88
2022-11-24T14:44:56.401Z,100512.00
2022-11-24T14:47:31.723Z,100514.91
2022-11-24T14:50:12.427Z,100517.84
2022-11-24T14:52:47.250Z,100521.88
2022-11-24T14:55:27.049Z,100526.59
2022-11-24T14:57:54.912Z,100527.00
2022-11-24T15:00:28.802Z,100530.63
2022-11-24T15:03:08.743Z,100522.09
2022-11-24T15:05:55.508Z,100524.31
2022-11-24T15:08:24.157Z,100531.69
2022-11-24T15:10:58.282Z,100532.22
2022-11-24T15:13:28.711Z,100532.59
2022-11-24T15:16:02.795Z,100533.13
2022-11-24T15:18:38.399Z,100535.22
2022-11-24T15:21:08.088Z,100542.00
2022-11-24T15:23:40.201Z,100543.25
2022-11-24T15:26:30.765Z,100552.56
2022-11-24T15:29:00.671Z,100556.56
2022-11-24T15:31:28.744Z,100549.13
2022-11-24T15:34:01.367Z,100553.13
2022-11-24T15:36:30.587Z,100553.63
2022-11-24T15:38:58.623Z,100550.66
2022-11-24T15:41:30.232Z,100555.63
2022-11-24T15:43:59.858Z,100563.44
2022-11-24T15:46:31.237Z,100565.28
2022-11-24T15:49:00.003Z,100565.09
2022-11-24T15:51:28.018Z,100570.88
2022-11-24T15:54:01.157Z,100569.94
2022-11-24T15:56:33.145Z,100568.84
2022-11-24T15:59:02.408Z,100570.16
2022-11-24T16:01:32.360Z,100571.63
2022-11-24T16:04:02.160Z,100578.38
2022-11-24T16:06:32.245Z,100573.09
2022-11-24T16:09:01.913Z,100574.53
2022-11-24T16:11:29.463Z,100575.84
2022-11-24T16:13:58.229Z,100575.50
2022-11-24T16:16:26.057Z,100582.09
2022-11-24T16:18:54.869Z,100580.06
2022-11-24T16:21:23.132Z,100586.88
2022-11-24T16:23:52.650Z,100589.28
2022-11-24T16:26:22.028Z,100589.84
2022-11-24T16:28:49.618Z,100592.97
2022-11-24T16:31:18.323Z,100589.84
2022-11-24T16:33:46.347Z,100598.97
2022-11-24T16:36:15.177Z,100600.13
2022-11-24T16:38:42.787Z,100592.66
2022-11-24T16:41:10.668Z,100601.91
2022-11-24T16:43:40.159Z,100596.09
2022-11-24T16:46:19.435Z,100593.00
2022-11-24T16:48:49.851Z,100599.44
2022-11-24T16:51:18.461Z,100590.06
2022-11-24T16:53:47.168Z,100588.94
2022-11-24T16:56:16.330Z,100592.88
2022-11-24T16:58:45.200Z,100589.84
2022-11-24T17:01:14.336Z,100599.06
2022-11-24T17:03:42.611Z,100603.72
2022-11-24T17:06:12.803Z,100607.63
2022-11-24T17:08:42.167Z,100602.69
2022-11-24T17:11:11.786Z,100602.28
2022-11-24T17:13:40.214Z,100601.69
2022-11-24T17:16:12.165Z,100602.81
2022-11-24T17:18:40.549Z,100605.75
2022-11-24T17:21:10.674Z,100604.41
2022-11-24T17:23:39.175Z,100609.16
2022-11-24T17:26:09.786Z,100602.53
2022-11-24T17:28:38.480Z,100600.31
2022-11-24T17:31:16.940Z,100605.09
2022-11-24T17:33:45.497Z,100602.66
2022-11-24T17:36:14.232Z,100604.75
2022-11-24T17:38:42.332Z,100603.28
2022-11-24T17:41:10.269Z,100606.25
2022-11-24T17:43:38.201Z,100603.22
2022-11-24T17:46:06.492Z,100604.38
2022-11-24T17:48:36.085Z,100599.50
2022-11-24T17:51:05.797Z,100605.81
2022-11-24T17:53:33.364Z,100600.06
2022-11-24T17:56:02.190Z,100607.31
2022-11-24T17:58:30.706Z,100602.22
2022-11-24T18:00:59.192Z,100606.88
2022-11-24T18:03:32.435Z,100607.94
2022-11-24T18:06:07.153Z,100604.78
2022-11-24T18:08:34.940Z,100609.41
2022-11-24T18:11:06.231Z,100609.59
2022-11-24T18:13:55.724Z,100606.34
2022-11-24T18:16:24.120Z,100598.63
2022-11-24T18:19:07.265Z,100604.97
2022-11-24T18:21:41.659Z,100602.44
2022-11-24T18:24:11.197Z,100606.94
2022-11-24T18:26:40.537Z,100606.31
2022-11-24T18:29:08.168Z,100609.81
2022-11-24T18:31:37.333Z,100607.16
2022-11-24T18:34:07.604Z,100600.84
2022-11-24T18:36:37.155Z,100600.00
2022-11-24T18:39:11.180Z,100606.00
2022-11-24T18:41:42.159Z,100606.00
2022-11-24T18:44:11.146Z,100606.88
2022-11-24T18:46:39.947Z,100612.13
2022-11-24T18:49:07.845Z,100608.56
2022-11-24T18:51:35.726Z,100611.19
2022-11-24T18:54:05.188Z,100619.09
2022-11-24T18:56:34.159Z,100615.63
2022-11-24T18:59:01.716Z,100617.19
2022-11-24T19:01:30.538Z,100621.63
2022-11-24T19:04:00.043Z,100623.41
2022-11-24T19:06:33.046Z,100625.09
2022-11-24T19:09:04.197Z,100622.47
2022-11-24T19:11:35.404Z,100627.84
2022-11-24T19:14:05.849Z,100626.16
2022-11-24T19:16:34.485Z,100631.44
2022-11-24T19:19:02.872Z,100633.09
2022-11-24T19:21:32.185Z,100633.00
2022-11-24T19:24:04.453Z,100639.00
2022-11-24T19:26:35.759Z,100629.22
2022-11-24T19:29:05.265Z,100636.06
2022-11-24T19:31:34.496Z,100634.94
2022-11-24T19:34:03.072Z,100638.94
2022-11-24T19:36:31.331Z,100640.50
2022-11-24T19:39:00.024Z,100642.97
2022-11-24T19:41:31.413Z,100638.41
2022-11-24T19:44:00.975Z,100640.03
2022-11-24T19:46:30.313Z,100645.91
2022-11-24T19:49:01.177Z,100650.22
2022-11-24T19:51:31.084Z,100645.81
2022-11-24T19:53:59.360Z,100648.34
2022-11-24T19:56:29.138Z,100647.41
2022-11-24T19:58:58.198Z,100645.81
2022-11-24T20:01:29.170Z,100648.34
2022-11-24T20:03:59.682Z,100644.00
2022-11-24T20:06:28.508Z,100654.56
2022-11-24T20:08:56.279Z,100657.19
2022-11-24T20:11:25.913Z,100653.94
2022-11-24T20:13:53.487Z,100655.91
2022-11-24T20:16:26.210Z,100650.03
2022-11-24T20:18:56.636Z,100652.97
2022-11-24T20:21:28.394Z,100647.03
2022-11-24T20:23:58.640Z,100646.41
2022-11-24T20:26:29.014Z,100648.41
2022-11-24T20:28:58.190Z,100646.00
2022-11-24T20:31:28.313Z,100648.94
2022-11-24T20:33:58.272Z,100650.91
2022-11-24T20:36:27.984Z,100645.84
2022-11-24T20:38:55.971Z,100647.09
2022-11-24T20:41:25.997Z,100656.97
2022-11-24T20:43:55.477Z,100654.56
2022-11-24T20:46:27.418Z,100655.81
2022-11-24T20:48:57.312Z,100655.16
2022-11-24T20:51:27.386Z,100639.63
2022-11-24T20:53:57.869Z,100647.00
2022-11-24T20:56:27.153Z,100647.31
2022-11-24T20:58:55.831Z,100644.97
2022-11-24T21:01:25.701Z,100649.69
2022-11-24T21:03:55.682Z,100656.06
2022-11-24T21:06:27.928Z,100651.19
2022-11-24T21:09:01.971Z,100659.31
2022-11-24T21:11:31.199Z,100646.53
2022-11-24T21:14:00.190Z,100650.28
2022-11-24T21:16:31.504Z,100644.47
2022-11-24T21:19:00.805Z,100651.81
2022-11-24T21:21:33.925Z,100644.22
2022-11-24T21:24:01.988Z,100650.63
2022-11-24T21:26:29.581Z,100652.69
2022-11-24T21:28:58.136Z,100650.25
2022-11-24T21:31:26.698Z,100653.06
2022-11-24T21:33:55.480Z,100644.44
2022-11-24T21:36:25.167Z,100649.75
2022-11-24T21:38:56.164Z,100649.75
2022-11-24T21:41:25.172Z,100655.88
2022-11-24T21:43:55.407Z,100655.78
2022-11-24T21:46:24.385Z,100665.38
2022-11-24T21:48:52.220Z,100652.78
2022-11-24T21:51:27.189Z,100657.78
2022-11-24T21:53:58.147Z,100652.31
2022-11-24T21:56:26.809Z,100643.28
2022-11-24T21:58:55.594Z,100642.78
2022-11-24T22:01:26.052Z,100641.38
2022-11-24T22:03:54.005Z,100631.94
2022-11-24T22:06:21.767Z,100632.31
2022-11-24T22:08:50.265Z,100634.44
2022-11-24T22:11:21.772Z,100627.81
2022-11-24T22:13:50.623Z,100618.78
2022-11-24T22:16:20.357Z,100634.38
2022-11-24T22:18:49.181Z,100636.06
2022-11-24T22:21:18.628Z,100633.41
2022-11-24T22:23:46.557Z,100630.59
2022-11-24T22:26:16.448Z,100642.94
2022-11-24T22:28:46.004Z,100633.34
2022-11-24T22:31:15.687Z,100632.56
2022-11-24T22:33:44.399Z,100631.00
2022-11-24T22:36:13.637Z,100626.78
2022-11-24T22:38:42.172Z,100622.56
2022-11-24T22:41:12.156Z,100631.50
2022-11-24T22:43:42.186Z,100623.06
2022-11-24T22:46:12.723Z,100626.72
2022-11-24T22:48:41.633Z,100627.88
2022-11-24T22:51:13.182Z,100622.06
2022-11-24T22:53:41.770Z,100617.09
2022-11-24T22:56:11.774Z,100612.09
2022-11-24T22:58:40.332Z,100614.09
2022-11-24T23:01:09.335Z,100608.28
2022-11-24T23:03:38.995Z,100614.78
2022-11-24T23:06:08.571Z,100617.69
2022-11-24T23:08:37.889Z,100614.50
2022-11-24T23:11:07.655Z,100610.41
2022-11-24T23:13:36.162Z,100617.63
2022-11-24T23:16:07.277Z,100614.34
2022-11-24T23:18:35.247Z,100618.97
2022-11-24T23:21:08.192Z,100617.34
2022-11-24T23:23:36.202Z,100613.13
2022-11-24T23:26:10.239Z,100608.81
2022-11-24T23:28:38.390Z,100614.94
2022-11-24T23:31:08.039Z,100617.66
2022-11-24T23:33:36.289Z,100609.75
2022-11-24T23:36:06.294Z,100611.63
2022-11-24T23:38:35.218Z,100609.00
2022-11-24T23:41:04.938Z,100608.06
2022-11-24T23:43:32.945Z,100603.63
2022-11-24T23:46:04.200Z,100598.09
2022-11-24T23:48:32.239Z,100588.34
2022-11-24T23:51:04.959Z,100593.38
2022-11-24T23:53:32.728Z,100592.53
2022-11-24T23:56:02.508Z,100583.59
2022-11-24T23:58:30.651Z,100581.84
